Airfield :
LOGIN :

Register | Disclaimer

   EN    FR    IT 

 










Legend :    VFR   Marginal VFR   IFR   Intensive IFR   Very Intensive IFR
Visi :
Ceiling :
>= 8 km
>= 3000ft
5 to 8 km
1000 to 3000 ft
1500m to 5 km
500 to 1000 ft
800 to 1500m
200 to 500 ft
< 800m
< 200 ft
Symbols :   Thunderstorms  Fog  Heavy snow  Heavy precipitations  Wind > 20 kt
SIGMETs :     Misc.  Thunderstorms  Icing  Turbulence  Mountain Waves  Volcanic Ashes






- Airport Elevation : 768 ft
- IATA code : MXP


LIMC - Milano Malpensa

CURRENT METAR :
  • 211350Z 36010KT 320V020 9999 BKN070 14/M08 Q1011 WS ALL RWY NOSIG

EXPIRED METARs :
  • 211320Z 06007KT 360V110 9999 BKN080 14/M10 Q1011 WS R35R NOSIG
  • 211250Z VRB03KT 9999 BKN090 15/M10 Q1011 NOSIG
  • 211220Z 21004KT 120V270 9999 BKN090 17/M11 Q1011 NOSIG
  • 211150Z VRB05KT CAVOK 16/M09 Q1011 NOSIG
  • 211120Z 24005KT 200V350 CAVOK 16/M09 Q1011 NOSIG
  • 211050Z VRB03KT CAVOK 15/M11 Q1012 NOSIG
  • 211020Z 32003KT 220V030 CAVOK 14/M09 Q1012 NOSIG
  • 210950Z VRB04KT CAVOK 15/M12 Q1012 NOSIG
  • 210920Z VRB04KT CAVOK 14/M09 Q1013 NOSIG

TAF TAF LIMC
Valid from the 21 at 12:00 until the 22 at 18:00 UTC


211100Z 2112/2218 04010KT CAVOK
TEMPO 2112/2218 SHRA
BECMG 2118/2120 RA
BECMG 2206/2208 VRB05KT



MET'MAP, your aeronautical weather chart ! - Copyright ORBIFLY December 2007 - Disclaimer

ORBIFLY MET'MAP TEAM :

Programming & Development : Alexandra Zaïnal
Original concept : Baudouin d'Aumeries
Technical & hardware support : Manuel Goepfert
Assistance : Marc-Olivier Méhu




SOURCES & CREDITS :

   NOAA